sensor_id;sensor_type;location;lat;lon;timestamp;pressure;altitude;pressure_sealevel;temperature;humidity
21988;BME280;11158;53.404;-1.510;2023-06-14T00:00:22;100933.50;;;20.30;36.07
21988;BME280;11158;53.404;-1.510;2023-06-14T00:03:07;100935.75;;;20.22;36.44
21988;BME280;11158;53.404;-1.510;2023-06-14T00:05:54;100941.06;;;20.05;36.45
21988;BME280;11158;53.404;-1.510;2023-06-14T00:08:38;100945.88;;;20.03;36.51
21988;BME280;11158;53.404;-1.510;2023-06-14T00:11:23;100943.50;;;19.95;36.31
21988;BME280;11158;53.404;-1.510;2023-06-14T00:14:08;100943.03;;;19.86;36.91
21988;BME280;11158;53.404;-1.510;2023-06-14T00:16:52;100950.25;;;20.04;36.36
21988;BME280;11158;53.404;-1.510;2023-06-14T00:19:37;100943.16;;;20.03;36.10
21988;BME280;11158;53.404;-1.510;2023-06-14T00:22:23;100946.38;;;20.23;36.41
21988;BME280;11158;53.404;-1.510;2023-06-14T00:25:12;100952.50;;;20.54;36.03
21988;BME280;11158;53.404;-1.510;2023-06-14T00:27:57;100952.28;;;20.56;36.05
21988;BME280;11158;53.404;-1.510;2023-06-14T00:30:41;100949.53;;;20.08;36.85
21988;BME280;11158;53.404;-1.510;2023-06-14T00:33:28;100947.34;;;19.45;38.36
21988;BME280;11158;53.404;-1.510;2023-06-14T00:36:12;100945.41;;;19.03;39.20
21988;BME280;11158;53.404;-1.510;2023-06-14T00:38:59;100948.78;;;18.99;39.59
21988;BME280;11158;53.404;-1.510;2023-06-14T00:41:44;100950.75;;;18.23;41.53
21988;BME280;11158;53.404;-1.510;2023-06-14T00:44:28;100942.50;;;18.18;41.68
21988;BME280;11158;53.404;-1.510;2023-06-14T00:47:12;100940.22;;;18.15;41.88
21988;BME280;11158;53.404;-1.510;2023-06-14T00:49:56;100945.91;;;18.32;41.52
21988;BME280;11158;53.404;-1.510;2023-06-14T00:52:41;100943.56;;;18.60;41.02
21988;BME280;11158;53.404;-1.510;2023-06-14T00:55:25;100942.06;;;18.65;40.50
21988;BME280;11158;53.404;-1.510;2023-06-14T00:58:10;100940.84;;;18.60;40.69
21988;BME280;11158;53.404;-1.510;2023-06-14T01:00:54;100946.28;;;18.97;39.50
21988;BME280;11158;53.404;-1.510;2023-06-14T01:03:38;100941.31;;;19.13;39.39
21988;BME280;11158;53.404;-1.510;2023-06-14T01:06:33;100930.97;;;19.21;39.38
21988;BME280;11158;53.404;-1.510;2023-06-14T01:09:27;100938.19;;;19.28;39.05
21988;BME280;11158;53.404;-1.510;2023-06-14T01:15:19;100932.53;;;18.99;39.70
21988;BME280;11158;53.404;-1.510;2023-06-14T01:18:05;100930.47;;;18.94;40.36
21988;BME280;11158;53.404;-1.510;2023-06-14T01:20:50;100939.19;;;18.59;41.40
21988;BME280;11158;53.404;-1.510;2023-06-14T01:23:34;100938.75;;;18.62;41.45
21988;BME280;11158;53.404;-1.510;2023-06-14T01:26:19;100932.28;;;18.20;42.06
21988;BME280;11158;53.404;-1.510;2023-06-14T01:29:04;100945.84;;;18.13;42.92
21988;BME280;11158;53.404;-1.510;2023-06-14T01:31:49;100941.03;;;17.90;43.21
21988;BME280;11158;53.404;-1.510;2023-06-14T01:34:34;100941.66;;;17.92;43.25
21988;BME280;11158;53.404;-1.510;2023-06-14T01:37:20;100941.72;;;18.11;42.86
21988;BME280;11158;53.404;-1.510;2023-06-14T01:40:06;100939.94;;;18.23;42.98
21988;BME280;11158;53.404;-1.510;2023-06-14T01:42:53;100941.09;;;18.34;42.58
21988;BME280;11158;53.404;-1.510;2023-06-14T01:45:38;100930.78;;;18.24;42.65
21988;BME280;11158;53.404;-1.510;2023-06-14T01:48:25;100930.63;;;18.62;41.88
21988;BME280;11158;53.404;-1.510;2023-06-14T01:51:09;100932.00;;;18.28;42.60
21988;BME280;11158;53.404;-1.510;2023-06-14T01:53:53;100932.00;;;17.71;43.93
21988;BME280;11158;53.404;-1.510;2023-06-14T01:56:37;100939.88;;;17.73;44.00
21988;BME280;11158;53.404;-1.510;2023-06-14T01:59:22;100942.38;;;16.98;45.82
21988;BME280;11158;53.404;-1.510;2023-06-14T02:02:06;100933.44;;;16.90;46.40
21988;BME280;11158;53.404;-1.510;2023-06-14T02:04:50;100932.84;;;16.75;46.82
21988;BME280;11158;53.404;-1.510;2023-06-14T02:07:34;100928.16;;;17.15;45.74
21988;BME280;11158;53.404;-1.510;2023-06-14T02:10:18;100919.34;;;17.33;45.01
21988;BME280;11158;53.404;-1.510;2023-06-14T02:13:03;100918.47;;;17.40;45.40
21988;BME280;11158;53.404;-1.510;2023-06-14T02:15:47;100921.38;;;17.38;45.38
21988;BME280;11158;53.404;-1.510;2023-06-14T02:18:35;100935.84;;;17.19;45.65
21988;BME280;11158;53.404;-1.510;2023-06-14T02:21:20;100930.78;;;16.77;46.74
21988;BME280;11158;53.404;-1.510;2023-06-14T02:24:04;100925.06;;;16.00;48.64
21988;BME280;11158;53.404;-1.510;2023-06-14T02:26:48;100937.91;;;15.85;49.51
21988;BME280;11158;53.404;-1.510;2023-06-14T02:29:32;100937.53;;;16.01;49.01
21988;BME280;11158;53.404;-1.510;2023-06-14T02:32:16;100934.59;;;16.49;47.73
21988;BME280;11158;53.404;-1.510;2023-06-14T02:35:01;100935.66;;;16.15;48.67
21988;BME280;11158;53.404;-1.510;2023-06-14T02:37:46;100932.59;;;16.96;46.46
21988;BME280;11158;53.404;-1.510;2023-06-14T02:40:30;100924.06;;;17.45;44.97
21988;BME280;11158;53.404;-1.510;2023-06-14T02:43:14;100924.69;;;17.02;46.18
21988;BME280;11158;53.404;-1.510;2023-06-14T02:46:01;100918.81;;;17.50;44.88
21988;BME280;11158;53.404;-1.510;2023-06-14T02:48:46;100921.81;;;16.96;46.40
21988;BME280;11158;53.404;-1.510;2023-06-14T02:51:31;100921.47;;;17.25;45.69
21988;BME280;11158;53.404;-1.510;2023-06-14T02:54:15;100910.03;;;17.61;44.77
21988;BME280;11158;53.404;-1.510;2023-06-14T02:57:00;100918.00;;;17.49;45.05
21988;BME280;11158;53.404;-1.510;2023-06-14T02:59:45;100923.81;;;17.53;44.86
21988;BME280;11158;53.404;-1.510;2023-06-14T03:02:29;100922.88;;;17.34;45.61
21988;BME280;11158;53.404;-1.510;2023-06-14T03:05:13;100923.97;;;17.58;45.28
21988;BME280;11158;53.404;-1.510;2023-06-14T03:07:58;100919.25;;;17.47;45.09
21988;BME280;11158;53.404;-1.510;2023-06-14T03:10:42;100923.97;;;17.58;44.91
21988;BME280;11158;53.404;-1.510;2023-06-14T03:13:27;100922.56;;;17.87;44.20
21988;BME280;11158;53.404;-1.510;2023-06-14T03:16:16;100920.84;;;17.93;43.84
21988;BME280;11158;53.404;-1.510;2023-06-14T03:19:03;100927.13;;;18.12;43.61
21988;BME280;11158;53.404;-1.510;2023-06-14T03:21:47;100928.53;;;17.96;43.61
21988;BME280;11158;53.404;-1.510;2023-06-14T03:24:33;100925.16;;;18.26;43.30
21988;BME280;11158;53.404;-1.510;2023-06-14T03:27:21;100930.66;;;18.37;43.15
21988;BME280;11158;53.404;-1.510;2023-06-14T03:30:06;100930.22;;;18.40;43.20
21988;BME280;11158;53.404;-1.510;2023-06-14T03:32:50;100932.47;;;18.18;43.24
21988;BME280;11158;53.404;-1.510;2023-06-14T03:35:39;100932.78;;;17.85;43.95
21988;BME280;11158;53.404;-1.510;2023-06-14T03:38:23;100922.75;;;18.36;43.09
21988;BME280;11158;53.404;-1.510;2023-06-14T03:41:07;100922.03;;;18.47;42.76
21988;BME280;11158;53.404;-1.510;2023-06-14T03:43:51;100930.31;;;18.71;42.23
21988;BME280;11158;53.404;-1.510;2023-06-14T03:46:36;100931.25;;;18.83;42.02
21988;BME280;11158;53.404;-1.510;2023-06-14T03:49:20;100932.97;;;18.77;41.88
21988;BME280;11158;53.404;-1.510;2023-06-14T03:52:04;100924.16;;;18.63;42.36
21988;BME280;11158;53.404;-1.510;2023-06-14T03:54:49;100925.72;;;18.71;42.17
21988;BME280;11158;53.404;-1.510;2023-06-14T03:57:33;100929.66;;;18.32;42.91
21988;BME280;11158;53.404;-1.510;2023-06-14T04:00:17;100925.56;;;18.66;42.31
21988;BME280;11158;53.404;-1.510;2023-06-14T04:03:02;100932.47;;;18.62;42.54
21988;BME280;11158;53.404;-1.510;2023-06-14T04:05:48;100924.91;;;18.71;42.39
21988;BME280;11158;53.404;-1.510;2023-06-14T04:08:33;100920.47;;;18.58;42.34
21988;BME280;11158;53.404;-1.510;2023-06-14T04:11:17;100921.22;;;18.65;42.69
21988;BME280;11158;53.404;-1.510;2023-06-14T04:14:02;100930.38;;;18.20;43.47
21988;BME280;11158;53.404;-1.510;2023-06-14T04:16:47;100915.41;;;18.61;42.92
21988;BME280;11158;53.404;-1.510;2023-06-14T04:19:32;100918.63;;;18.77;42.52
21988;BME280;11158;53.404;-1.510;2023-06-14T04:22:16;100920.56;;;18.88;41.65
21988;BME280;11158;53.404;-1.510;2023-06-14T04:25:00;100908.91;;;19.06;41.44
21988;BME280;11158;53.404;-1.510;2023-06-14T04:27:44;100920.78;;;18.25;43.58
21988;BME280;11158;53.404;-1.510;2023-06-14T04:30:31;100918.06;;;18.87;42.37
21988;BME280;11158;53.404;-1.510;2023-06-14T04:33:15;100918.31;;;19.03;41.89
21988;BME280;11158;53.404;-1.510;2023-06-14T04:35:59;100920.75;;;19.23;41.46
21988;BME280;11158;53.404;-1.510;2023-06-14T04:38:43;100920.66;;;19.30;41.32
21988;BME280;11158;53.404;-1.510;2023-06-14T04:41:29;100929.34;;;19.51;41.09
21988;BME280;11158;53.404;-1.510;2023-06-14T04:44:14;100917.50;;;20.93;38.83
21988;BME280;11158;53.404;-1.510;2023-06-14T04:47:00;100912.13;;;23.40;34.21
21988;BME280;11158;53.404;-1.510;2023-06-14T04:49:44;100905.75;;;25.62;29.89
21988;BME280;11158;53.404;-1.510;2023-06-14T04:52:29;100901.69;;;26.01;28.82
21988;BME280;11158;53.404;-1.510;2023-06-14T04:55:14;100904.31;;;27.22;27.05
21988;BME280;11158;53.404;-1.510;2023-06-14T04:57:58;100911.09;;;26.80;27.43
21988;BME280;11158;53.404;-1.510;2023-06-14T05:00:42;100900.13;;;27.74;26.09
21988;BME280;11158;53.404;-1.510;2023-06-14T05:03:27;100904.34;;;28.54;24.68
21988;BME280;11158;53.404;-1.510;2023-06-14T05:06:11;100899.06;;;28.29;25.13
21988;BME280;11158;53.404;-1.510;2023-06-14T05:08:56;100898.56;;;28.27;25.13
21988;BME280;11158;53.404;-1.510;2023-06-14T05:11:40;100901.47;;;27.77;25.56
21988;BME280;11158;53.404;-1.510;2023-06-14T05:14:28;100899.78;;;28.15;25.58
21988;BME280;11158;53.404;-1.510;2023-06-14T05:17:11;100900.72;;;27.66;26.03
21988;BME280;11158;53.404;-1.510;2023-06-14T05:19:56;100902.47;;;26.32;28.03
21988;BME280;11158;53.404;-1.510;2023-06-14T05:22:40;100903.00;;;26.24;27.95
21988;BME280;11158;53.404;-1.510;2023-06-14T05:25:24;100918.69;;;24.88;30.07
21988;BME280;11158;53.404;-1.510;2023-06-14T05:28:09;100903.81;;;25.42;29.92
21988;BME280;11158;53.404;-1.510;2023-06-14T05:30:53;100905.75;;;25.52;29.47
21988;BME280;11158;53.404;-1.510;2023-06-14T05:33:37;100900.50;;;27.13;27.11
21988;BME280;11158;53.404;-1.510;2023-06-14T05:36:21;100903.19;;;27.28;27.10
21988;BME280;11158;53.404;-1.510;2023-06-14T05:39:06;100903.53;;;28.25;25.76
21988;BME280;11158;53.404;-1.510;2023-06-14T05:41:50;100897.66;;;29.60;23.85
21988;BME280;11158;53.404;-1.510;2023-06-14T05:44:34;100908.81;;;27.47;26.69
21988;BME280;11158;53.404;-1.510;2023-06-14T05:47:18;100899.38;;;29.56;23.99
21988;BME280;11158;53.404;-1.510;2023-06-14T05:50:03;100904.38;;;26.37;28.74
21988;BME280;11158;53.404;-1.510;2023-06-14T05:52:47;100911.53;;;26.07;29.23
21988;BME280;11158;53.404;-1.510;2023-06-14T05:55:31;100903.56;;;28.49;25.66
21988;BME280;11158;53.404;-1.510;2023-06-14T05:58:15;100915.88;;;25.72;29.33
21988;BME280;11158;53.404;-1.510;2023-06-14T06:00:59;100920.56;;;23.98;32.33
21988;BME280;11158;53.404;-1.510;2023-06-14T06:03:43;100911.34;;;25.04;31.10
21988;BME280;11158;53.404;-1.510;2023-06-14T06:06:30;100905.00;;;26.88;28.20
21988;BME280;11158;53.404;-1.510;2023-06-14T06:09:14;100922.41;;;23.87;33.21
21988;BME280;11158;53.404;-1.510;2023-06-14T06:11:58;100921.66;;;26.01;29.92
21988;BME280;11158;53.404;-1.510;2023-06-14T06:14:43;100915.31;;;27.12;28.29
21988;BME280;11158;53.404;-1.510;2023-06-14T06:17:28;100912.25;;;27.29;27.53
21988;BME280;11158;53.404;-1.510;2023-06-14T06:20:12;100917.50;;;27.20;28.17
21988;BME280;11158;53.404;-1.510;2023-06-14T06:23:00;100930.75;;;24.93;31.95
21988;BME280;11158;53.404;-1.510;2023-06-14T06:25:44;100906.28;;;26.26;29.66
21988;BME280;11158;53.404;-1.510;2023-06-14T06:28:29;100905.72;;;26.39;29.79
21988;BME280;11158;53.404;-1.510;2023-06-14T06:31:13;100906.84;;;28.51;26.41
21988;BME280;11158;53.404;-1.510;2023-06-14T06:33:58;100916.59;;;26.75;29.04
21988;BME280;11158;53.404;-1.510;2023-06-14T06:36:42;100909.31;;;27.94;26.88
21988;BME280;11158;53.404;-1.510;2023-06-14T06:39:26;100910.97;;;27.90;26.86
21988;BME280;11158;53.404;-1.510;2023-06-14T06:42:12;100923.38;;;27.48;27.44
21988;BME280;11158;53.404;-1.510;2023-06-14T06:44:56;100928.56;;;28.47;26.25
21988;BME280;11158;53.404;-1.510;2023-06-14T06:47:40;100922.25;;;27.54;27.42
21988;BME280;11158;53.404;-1.510;2023-06-14T06:50:24;100926.50;;;27.70;27.79
21988;BME280;11158;53.404;-1.510;2023-06-14T06:53:09;100927.91;;;27.23;27.64
21988;BME280;11158;53.404;-1.510;2023-06-14T06:55:53;100930.13;;;25.59;30.83
21988;BME280;11158;53.404;-1.510;2023-06-14T06:58:37;100922.66;;;28.06;27.32
21988;BME280;11158;53.404;-1.510;2023-06-14T07:01:22;100926.28;;;27.12;28.80
21988;BME280;11158;53.404;-1.510;2023-06-14T07:04:08;100923.09;;;28.71;26.26
21988;BME280;11158;53.404;-1.510;2023-06-14T07:06:52;100915.97;;;30.63;24.13
21988;BME280;11158;53.404;-1.510;2023-06-14T07:09:36;100919.59;;;29.65;25.02
21988;BME280;11158;53.404;-1.510;2023-06-14T07:12:20;100937.94;;;26.88;28.93
21988;BME280;11158;53.404;-1.510;2023-06-14T07:15:06;100935.88;;;26.24;30.03
21988;BME280;11158;53.404;-1.510;2023-06-14T07:17:51;100948.97;;;24.77;32.49
21988;BME280;11158;53.404;-1.510;2023-06-14T07:20:36;100946.22;;;24.72;32.98
21988;BME280;11158;53.404;-1.510;2023-06-14T07:23:22;100938.66;;;25.98;31.38
21988;BME280;11158;53.404;-1.510;2023-06-14T07:26:06;100931.19;;;28.04;28.51
21988;BME280;11158;53.404;-1.510;2023-06-14T07:28:50;100941.56;;;26.68;29.49
21988;BME280;11158;53.404;-1.510;2023-06-14T07:31:35;100936.31;;;28.69;27.46
21988;BME280;11158;53.404;-1.510;2023-06-14T07:34:19;100939.38;;;27.30;28.88
21988;BME280;11158;53.404;-1.510;2023-06-14T07:37:03;100945.75;;;25.94;31.39
21988;BME280;11158;53.404;-1.510;2023-06-14T07:39:48;100946.78;;;25.42;32.04
21988;BME280;11158;53.404;-1.510;2023-06-14T07:42:34;100956.97;;;24.88;32.57
21988;BME280;11158;53.404;-1.510;2023-06-14T07:45:19;100942.41;;;26.43;30.44
21988;BME280;11158;53.404;-1.510;2023-06-14T07:48:04;100942.00;;;27.56;29.63
21988;BME280;11158;53.404;-1.510;2023-06-14T07:50:48;100925.44;;;30.43;25.36
21988;BME280;11158;53.404;-1.510;2023-06-14T07:53:32;100937.41;;;27.41;29.19
21988;BME280;11158;53.404;-1.510;2023-06-14T07:56:16;100934.44;;;26.52;30.70
21988;BME280;11158;53.404;-1.510;2023-06-14T07:59:00;100919.16;;;29.77;26.35
21988;BME280;11158;53.404;-1.510;2023-06-14T08:01:44;100944.06;;;25.67;32.53
21988;BME280;11158;53.404;-1.510;2023-06-14T08:04:29;100938.31;;;22.97;37.23
21988;BME280;11158;53.404;-1.510;2023-06-14T08:07:14;100951.75;;;21.92;40.14
21988;BME280;11158;53.404;-1.510;2023-06-14T08:09:59;100951.53;;;21.36;41.09
21988;BME280;11158;53.404;-1.510;2023-06-14T08:12:43;100950.22;;;22.30;39.92
21988;BME280;11158;53.404;-1.510;2023-06-14T08:15:28;100954.88;;;21.26;42.12
21988;BME280;11158;53.404;-1.510;2023-06-14T08:18:12;100956.88;;;21.88;40.95
21988;BME280;11158;53.404;-1.510;2023-06-14T08:20:57;100959.59;;;21.31;41.67
21988;BME280;11158;53.404;-1.510;2023-06-14T08:23:41;100953.25;;;21.54;41.50
21988;BME280;11158;53.404;-1.510;2023-06-14T08:26:27;100955.16;;;21.53;42.27
21988;BME280;11158;53.404;-1.510;2023-06-14T08:29:12;100953.34;;;21.30;41.73
21988;BME280;11158;53.404;-1.510;2023-06-14T08:31:57;100959.34;;;20.92;42.62
21988;BME280;11158;53.404;-1.510;2023-06-14T08:34:42;100956.44;;;20.58;43.26
21988;BME280;11158;53.404;-1.510;2023-06-14T08:37:26;100949.50;;;21.15;42.15
21988;BME280;11158;53.404;-1.510;2023-06-14T08:40:19;100965.19;;;20.60;43.84
21988;BME280;11158;53.404;-1.510;2023-06-14T08:43:05;100962.31;;;20.79;43.55
21988;BME280;11158;53.404;-1.510;2023-06-14T08:45:54;100948.19;;;21.17;42.94
21988;BME280;11158;53.404;-1.510;2023-06-14T08:48:41;100947.91;;;21.30;43.08
21988;BME280;11158;53.404;-1.510;2023-06-14T08:51:27;100941.75;;;20.95;43.48
21988;BME280;11158;53.404;-1.510;2023-06-14T08:54:17;100954.31;;;21.24;43.29
21988;BME280;11158;53.404;-1.510;2023-06-14T08:57:05;100934.28;;;22.77;40.18
21988;BME280;11158;53.404;-1.510;2023-06-14T08:59:51;100942.25;;;21.61;42.26
21988;BME280;11158;53.404;-1.510;2023-06-14T09:02:39;100938.44;;;21.62;42.62
21988;BME280;11158;53.404;-1.510;2023-06-14T09:05:28;100941.19;;;21.79;42.08
21988;BME280;11158;53.404;-1.510;2023-06-14T09:08:12;100939.75;;;21.59;41.99
21988;BME280;11158;53.404;-1.510;2023-06-14T09:10:57;100942.78;;;22.08;41.24
21988;BME280;11158;53.404;-1.510;2023-06-14T09:13:41;100933.38;;;22.33;41.25
21988;BME280;11158;53.404;-1.510;2023-06-14T09:16:26;100939.22;;;21.74;42.25
21988;BME280;11158;53.404;-1.510;2023-06-14T09:19:20;100939.94;;;21.69;42.10
21988;BME280;11158;53.404;-1.510;2023-06-14T09:22:05;100939.75;;;21.19;43.36
21988;BME280;11158;53.404;-1.510;2023-06-14T09:24:50;100933.69;;;22.36;40.89
21988;BME280;11158;53.404;-1.510;2023-06-14T09:27:34;100925.44;;;21.98;41.80
21988;BME280;11158;53.404;-1.510;2023-06-14T09:30:20;100941.28;;;22.01;41.92
21988;BME280;11158;53.404;-1.510;2023-06-14T09:33:04;100930.63;;;22.72;40.37
21988;BME280;11158;53.404;-1.510;2023-06-14T09:35:51;100931.13;;;23.30;38.85
21988;BME280;11158;53.404;-1.510;2023-06-14T09:38:36;100943.75;;;22.53;40.08
21988;BME280;11158;53.404;-1.510;2023-06-14T09:41:21;100932.69;;;23.26;38.41
21988;BME280;11158;53.404;-1.510;2023-06-14T09:44:06;100943.59;;;22.82;38.05
21988;BME280;11158;53.404;-1.510;2023-06-14T09:46:51;100936.81;;;23.06;37.97
21988;BME280;11158;53.404;-1.510;2023-06-14T09:49:35;100934.78;;;23.73;36.84
21988;BME280;11158;53.404;-1.510;2023-06-14T09:52:29;100935.03;;;23.39;35.96
21988;BME280;11158;53.404;-1.510;2023-06-14T09:55:14;100930.84;;;22.87;36.37
21988;BME280;11158;53.404;-1.510;2023-06-14T09:58:00;100936.97;;;23.44;36.38
21988;BME280;11158;53.404;-1.510;2023-06-14T10:00:50;100938.16;;;23.04;37.23
21988;BME280;11158;53.404;-1.510;2023-06-14T10:03:35;100934.84;;;23.24;36.76
21988;BME280;11158;53.404;-1.510;2023-06-14T10:06:23;100931.41;;;23.60;36.36
21988;BME280;11158;53.404;-1.510;2023-06-14T10:09:09;100928.84;;;23.49;35.65
21988;BME280;11158;53.404;-1.510;2023-06-14T10:11:55;100928.34;;;23.79;35.40
21988;BME280;11158;53.404;-1.510;2023-06-14T10:14:39;100933.34;;;23.87;33.84
21988;BME280;11158;53.404;-1.510;2023-06-14T10:17:49;100925.97;;;23.60;33.50
21988;BME280;11158;53.404;-1.510;2023-06-14T10:20:39;100930.88;;;23.63;32.78
21988;BME280;11158;53.404;-1.510;2023-06-14T10:23:27;100926.13;;;23.49;33.36
21988;BME280;11158;53.404;-1.510;2023-06-14T10:26:23;100926.88;;;23.44;33.32
21988;BME280;11158;53.404;-1.510;2023-06-14T10:29:09;100919.38;;;23.56;32.96
21988;BME280;11158;53.404;-1.510;2023-06-14T10:31:58;100920.53;;;23.38;32.72
21988;BME280;11158;53.404;-1.510;2023-06-14T10:34:43;100928.81;;;23.21;32.80
21988;BME280;11158;53.404;-1.510;2023-06-14T10:37:27;100916.56;;;24.11;31.74
21988;BME280;11158;53.404;-1.510;2023-06-14T10:40:29;100923.06;;;24.04;31.32
21988;BME280;11158;53.404;-1.510;2023-06-14T10:43:22;100923.34;;;24.03;31.17
21988;BME280;11158;53.404;-1.510;2023-06-14T10:46:19;100918.56;;;23.83;30.64
21988;BME280;11158;53.404;-1.510;2023-06-14T10:49:06;100918.19;;;24.07;29.89
21988;BME280;11158;53.404;-1.510;2023-06-14T10:51:51;100922.03;;;24.11;29.74
21988;BME280;11158;53.404;-1.510;2023-06-14T10:54:35;100925.44;;;24.28;29.91
21988;BME280;11158;53.404;-1.510;2023-06-14T10:57:20;100908.97;;;24.18;29.84
21988;BME280;11158;53.404;-1.510;2023-06-14T11:00:06;100925.94;;;24.20;29.71
21988;BME280;11158;53.404;-1.510;2023-06-14T11:05:59;100918.56;;;24.25;29.33
21988;BME280;11158;53.404;-1.510;2023-06-14T11:11:37;100918.44;;;24.05;29.58
21988;BME280;11158;53.404;-1.510;2023-06-14T11:14:22;100907.41;;;23.62;29.18
21988;BME280;11158;53.404;-1.510;2023-06-14T11:17:06;100925.03;;;23.77;30.36
21988;BME280;11158;53.404;-1.510;2023-06-14T11:19:50;100915.53;;;24.59;29.05
21988;BME280;11158;53.404;-1.510;2023-06-14T11:22:44;100916.31;;;24.12;29.40
21988;BME280;11158;53.404;-1.510;2023-06-14T11:25:29;100905.19;;;24.24;28.99
21988;BME280;11158;53.404;-1.510;2023-06-14T11:28:15;100897.75;;;24.52;28.92
21988;BME280;11158;53.404;-1.510;2023-06-14T11:31:00;100912.00;;;23.84;29.29
21988;BME280;11158;53.404;-1.510;2023-06-14T11:33:49;100908.78;;;24.77;28.15
21988;BME280;11158;53.404;-1.510;2023-06-14T11:36:34;100906.66;;;23.99;28.62
21988;BME280;11158;53.404;-1.510;2023-06-14T11:39:24;100896.31;;;25.02;27.86
21988;BME280;11158;53.404;-1.510;2023-06-14T11:42:14;100888.06;;;24.92;28.23
21988;BME280;11158;53.404;-1.510;2023-06-14T11:44:59;100890.94;;;25.27;28.07
21988;BME280;11158;53.404;-1.510;2023-06-14T11:47:43;100883.81;;;25.21;27.61
21988;BME280;11158;53.404;-1.510;2023-06-14T11:50:28;100896.97;;;25.24;27.57
21988;BME280;11158;53.404;-1.510;2023-06-14T11:53:13;100896.97;;;25.35;27.52
21988;BME280;11158;53.404;-1.510;2023-06-14T11:55:58;100894.06;;;24.83;27.84
21988;BME280;11158;53.404;-1.510;2023-06-14T11:58:43;100887.13;;;25.75;27.24
21988;BME280;11158;53.404;-1.510;2023-06-14T12:01:30;100885.22;;;26.16;26.81
21988;BME280;11158;53.404;-1.510;2023-06-14T12:04:31;100889.28;;;25.21;26.60
21988;BME280;11158;53.404;-1.510;2023-06-14T12:07:17;100890.59;;;25.14;27.91
21988;BME280;11158;53.404;-1.510;2023-06-14T12:10:08;100892.56;;;25.28;27.82
21988;BME280;11158;53.404;-1.510;2023-06-14T12:13:01;100882.66;;;25.17;27.91
21988;BME280;11158;53.404;-1.510;2023-06-14T12:15:54;100887.69;;;25.51;27.02
21988;BME280;11158;53.404;-1.510;2023-06-14T12:18:41;100894.34;;;24.87;27.56
21988;BME280;11158;53.404;-1.510;2023-06-14T12:21:27;100897.81;;;25.71;27.37
21988;BME280;11158;53.404;-1.510;2023-06-14T12:24:12;100892.03;;;26.29;25.59
21988;BME280;11158;53.404;-1.510;2023-06-14T12:26:58;100887.97;;;25.80;26.61
21988;BME280;11158;53.404;-1.510;2023-06-14T12:29:58;100888.94;;;25.07;26.81
21988;BME280;11158;53.404;-1.510;2023-06-14T12:32:42;100894.22;;;25.24;27.33
21988;BME280;11158;53.404;-1.510;2023-06-14T12:35:27;100887.16;;;25.54;26.63
21988;BME280;11158;53.404;-1.510;2023-06-14T12:38:12;100891.84;;;24.75;27.91
21988;BME280;11158;53.404;-1.510;2023-06-14T12:40:56;100894.44;;;25.18;28.14
21988;BME280;11158;53.404;-1.510;2023-06-14T12:43:41;100893.59;;;25.02;28.66
21988;BME280;11158;53.404;-1.510;2023-06-14T12:46:26;100896.59;;;25.05;28.92
21988;BME280;11158;53.404;-1.510;2023-06-14T12:49:13;100892.34;;;25.86;26.96
21988;BME280;11158;53.404;-1.510;2023-06-14T12:51:57;100896.28;;;24.97;28.16
21988;BME280;11158;53.404;-1.510;2023-06-14T12:54:41;100896.91;;;25.19;28.32
21988;BME280;11158;53.404;-1.510;2023-06-14T12:57:25;100899.19;;;25.99;27.10
21988;BME280;11158;53.404;-1.510;2023-06-14T13:00:09;100888.22;;;26.30;27.24
21988;BME280;11158;53.404;-1.510;2023-06-14T13:02:54;100896.97;;;25.40;28.74
21988;BME280;11158;53.404;-1.510;2023-06-14T13:05:38;100891.00;;;26.09;28.79
21988;BME280;11158;53.404;-1.510;2023-06-14T13:08:24;100895.56;;;25.22;28.51
21988;BME280;11158;53.404;-1.510;2023-06-14T13:11:08;100899.31;;;25.05;28.68
21988;BME280;11158;53.404;-1.510;2023-06-14T13:13:53;100891.41;;;25.09;28.64
21988;BME280;11158;53.404;-1.510;2023-06-14T13:16:37;100905.22;;;24.72;29.36
21988;BME280;11158;53.404;-1.510;2023-06-14T13:19:22;100908.81;;;24.87;29.56
21988;BME280;11158;53.404;-1.510;2023-06-14T13:22:06;100897.44;;;25.06;29.15
21988;BME280;11158;53.404;-1.510;2023-06-14T13:24:51;100898.84;;;25.19;29.48
21988;BME280;11158;53.404;-1.510;2023-06-14T13:27:35;100899.53;;;24.88;30.30
21988;BME280;11158;53.404;-1.510;2023-06-14T13:30:20;100897.59;;;24.79;29.80
21988;BME280;11158;53.404;-1.510;2023-06-14T13:33:04;100892.88;;;25.58;28.66
21988;BME280;11158;53.404;-1.510;2023-06-14T13:35:48;100897.84;;;24.72;28.63
21988;BME280;11158;53.404;-1.510;2023-06-14T13:38:33;100897.28;;;24.65;28.63
21988;BME280;11158;53.404;-1.510;2023-06-14T13:41:17;100900.22;;;24.16;29.42
21988;BME280;11158;53.404;-1.510;2023-06-14T13:44:01;100904.91;;;24.63;29.12
21988;BME280;11158;53.404;-1.510;2023-06-14T13:46:47;100897.13;;;25.02;28.82
21988;BME280;11158;53.404;-1.510;2023-06-14T13:49:32;100903.81;;;24.64;29.05
21988;BME280;11158;53.404;-1.510;2023-06-14T13:52:19;100908.53;;;24.79;27.99
21988;BME280;11158;53.404;-1.510;2023-06-14T13:55:04;100893.72;;;25.84;27.11
21988;BME280;11158;53.404;-1.510;2023-06-14T13:57:49;100894.22;;;25.40;27.51
21988;BME280;11158;53.404;-1.510;2023-06-14T14:00:33;100894.97;;;25.15;28.36
21988;BME280;11158;53.404;-1.510;2023-06-14T14:03:17;100898.44;;;24.84;28.24
21988;BME280;11158;53.404;-1.510;2023-06-14T14:06:04;100897.53;;;25.67;27.83
21988;BME280;11158;53.404;-1.510;2023-06-14T14:08:49;100893.03;;;25.10;27.91
21988;BME280;11158;53.404;-1.510;2023-06-14T14:11:34;100901.69;;;24.76;28.05
21988;BME280;11158;53.404;-1.510;2023-06-14T14:14:18;100891.25;;;25.92;26.73
21988;BME280;11158;53.404;-1.510;2023-06-14T14:17:02;100895.34;;;25.59;27.49
21988;BME280;11158;53.404;-1.510;2023-06-14T14:19:47;100895.03;;;25.40;27.43
21988;BME280;11158;53.404;-1.510;2023-06-14T14:22:32;100907.22;;;24.97;27.30